createdAt,value
2018-07-14T00:00:20.028Z,7.47
2018-07-14T00:02:48.249Z,7.73
2018-07-14T00:05:16.464Z,5.70
2018-07-14T00:07:44.660Z,7.10
2018-07-14T00:10:12.880Z,6.57
2018-07-14T00:12:41.068Z,7.10
2018-07-14T00:15:09.304Z,7.03
2018-07-14T00:17:37.556Z,7.73
2018-07-14T00:20:05.812Z,7.90
2018-07-14T00:22:33.989Z,7.63
2018-07-14T00:25:02.201Z,6.87
2018-07-14T00:27:30.373Z,6.87
2018-07-14T00:29:58.560Z,6.53
2018-07-14T00:32:26.760Z,7.63
2018-07-14T00:34:54.965Z,6.20
2018-07-14T00:37:23.180Z,6.40
2018-07-14T00:39:51.361Z,5.53
2018-07-14T00:42:19.558Z,5.93
2018-07-14T00:44:47.731Z,7.87
2018-07-14T00:47:15.949Z,7.20
2018-07-14T00:49:44.161Z,6.97
2018-07-14T00:52:12.390Z,6.30
2018-07-14T00:54:40.546Z,6.70
2018-07-14T00:57:08.768Z,6.60
2018-07-14T00:59:36.948Z,6.37
2018-07-14T01:02:05.164Z,6.17
2018-07-14T01:04:33.353Z,7.20
2018-07-14T01:07:01.287Z,7.00
2018-07-14T01:09:29.506Z,7.70
2018-07-14T01:11:57.671Z,7.37
2018-07-14T01:14:25.957Z,7.00
2018-07-14T01:16:54.168Z,7.00
2018-07-14T01:19:22.337Z,7.40
2018-07-14T01:21:50.525Z,6.70
2018-07-14T01:24:18.705Z,6.00
2018-07-14T01:26:46.916Z,6.00
2018-07-14T01:29:15.412Z,5.87
2018-07-14T01:31:43.717Z,6.07
2018-07-14T01:34:11.914Z,6.10
2018-07-14T01:36:40.104Z,6.60
2018-07-14T01:39:08.781Z,6.90
2018-07-14T01:41:36.984Z,6.60
2018-07-14T01:44:05.178Z,5.90
2018-07-14T01:46:33.388Z,6.03
2018-07-14T01:49:01.637Z,6.17
2018-07-14T01:51:29.865Z,6.53
2018-07-14T01:53:58.122Z,6.03
2018-07-14T01:56:26.322Z,6.90
2018-07-14T01:58:54.516Z,6.43
2018-07-14T02:01:22.676Z,7.03
2018-07-14T02:03:50.921Z,6.80
2018-07-14T02:06:19.147Z,6.17
2018-07-14T02:08:47.308Z,6.37
2018-07-14T02:11:15.496Z,6.33
2018-07-14T02:13:43.677Z,6.30
2018-07-14T02:16:11.876Z,6.50
2018-07-14T02:18:40.038Z,5.73
2018-07-14T02:21:08.237Z,5.77
2018-07-14T02:23:36.383Z,7.00
2018-07-14T02:26:04.621Z,6.40
2018-07-14T02:28:32.819Z,6.40
2018-07-14T02:31:00.995Z,6.07
2018-07-14T02:33:29.194Z,5.80
2018-07-14T02:35:57.365Z,5.30
2018-07-14T02:38:25.569Z,5.43
2018-07-14T02:40:53.804Z,7.00
2018-07-14T02:43:21.982Z,6.23
2018-07-14T02:45:50.206Z,7.30
2018-07-14T02:48:18.401Z,7.17
2018-07-14T02:50:46.672Z,6.93
2018-07-14T02:53:14.882Z,6.17
2018-07-14T02:55:43.101Z,7.50
2018-07-14T02:58:11.314Z,6.07
2018-07-14T03:00:39.553Z,6.73
2018-07-14T03:03:07.775Z,6.63
2018-07-14T03:05:35.981Z,6.07
2018-07-14T03:08:04.208Z,6.53
2018-07-14T03:10:32.429Z,6.00
2018-07-14T03:13:00.660Z,5.50
2018-07-14T03:15:28.866Z,6.53
2018-07-14T03:17:57.057Z,7.13
2018-07-14T03:20:25.279Z,7.40
2018-07-14T03:22:53.449Z,7.30
2018-07-14T03:25:21.649Z,6.17
2018-07-14T03:27:49.808Z,6.40
2018-07-14T03:30:18.026Z,6.50
2018-07-14T03:32:46.188Z,6.23
2018-07-14T03:35:14.627Z,6.93
2018-07-14T03:37:42.832Z,6.53
2018-07-14T03:40:11.020Z,6.30
2018-07-14T03:42:39.206Z,7.23
2018-07-14T03:45:07.748Z,7.40
2018-07-14T03:47:36.177Z,5.13
2018-07-14T03:50:04.799Z,6.07
2018-07-14T03:52:33.037Z,5.73
2018-07-14T03:55:01.232Z,5.90
2018-07-14T03:57:29.381Z,6.13
2018-07-14T03:59:57.592Z,6.40
2018-07-14T04:02:25.780Z,6.60
2018-07-14T04:04:53.937Z,5.80
2018-07-14T04:07:22.169Z,6.30
2018-07-14T04:09:50.348Z,5.60
2018-07-14T04:12:18.548Z,5.40
2018-07-14T04:14:46.814Z,6.20
2018-07-14T04:17:15.033Z,6.20
2018-07-14T04:19:43.353Z,6.80
2018-07-14T04:22:11.529Z,5.77
2018-07-14T04:24:39.828Z,6.33
2018-07-14T04:27:08.056Z,6.67
2018-07-14T04:29:36.233Z,6.03
2018-07-14T04:32:04.485Z,6.70
2018-07-14T04:34:32.665Z,6.20
2018-07-14T04:37:00.894Z,6.17
2018-07-14T04:39:29.128Z,7.03
2018-07-14T04:41:57.305Z,6.30
2018-07-14T04:44:25.513Z,6.30
2018-07-14T04:46:53.713Z,6.30
2018-07-14T04:49:21.995Z,6.03
2018-07-14T04:51:50.213Z,5.90
2018-07-14T04:54:18.464Z,6.07
2018-07-14T04:56:46.680Z,6.50
2018-07-14T04:59:14.890Z,5.50
2018-07-14T05:01:43.080Z,5.67
2018-07-14T05:04:11.294Z,4.80
2018-07-14T05:06:39.489Z,6.13
2018-07-14T05:09:07.808Z,5.63
2018-07-14T05:11:36.024Z,5.67
2018-07-14T05:14:04.228Z,5.90
2018-07-14T05:16:32.479Z,6.00
2018-07-14T05:19:00.703Z,5.20
2018-07-14T05:21:28.950Z,4.83
2018-07-14T05:23:57.240Z,5.47
2018-07-14T05:26:25.440Z,5.70
2018-07-14T05:28:53.632Z,6.10
2018-07-14T05:31:21.841Z,5.20
2018-07-14T05:33:50.041Z,4.90
2018-07-14T05:36:18.936Z,5.00
2018-07-14T05:38:47.867Z,5.57
2018-07-14T05:41:16.715Z,5.50
2018-07-14T05:43:44.981Z,5.20
2018-07-14T05:46:13.275Z,4.57
2018-07-14T05:48:41.644Z,5.43
2018-07-14T05:51:09.886Z,5.67
2018-07-14T05:53:38.098Z,4.93
2018-07-14T05:56:06.338Z,5.27
2018-07-14T05:58:34.581Z,5.77
2018-07-14T06:01:02.898Z,5.27
2018-07-14T06:03:31.141Z,5.50
2018-07-14T06:06:00.174Z,5.77
2018-07-14T06:08:28.388Z,5.90
2018-07-14T06:10:56.609Z,5.93
2018-07-14T06:13:24.785Z,7.00
2018-07-14T06:15:53.036Z,5.10
2018-07-14T06:18:21.245Z,5.70
2018-07-14T06:20:49.935Z,6.23
2018-07-14T06:23:18.684Z,6.00
2018-07-14T06:25:47.333Z,6.10
2018-07-14T06:28:16.081Z,5.67
2018-07-14T06:30:44.723Z,5.00
2018-07-14T06:33:13.440Z,5.60
2018-07-14T06:35:42.196Z,5.70
2018-07-14T06:38:10.440Z,5.40
2018-07-14T06:40:38.695Z,5.27
2018-07-14T06:43:07.028Z,5.20
2018-07-14T06:45:35.270Z,5.10
2018-07-14T06:48:03.465Z,5.73
2018-07-14T06:50:31.680Z,6.23
2018-07-14T06:53:00.188Z,5.70
2018-07-14T06:55:28.354Z,5.10
2018-07-14T06:57:56.556Z,5.93
2018-07-14T07:00:24.749Z,6.00
2018-07-14T07:02:53.015Z,5.63
2018-07-14T07:05:21.236Z,5.43
2018-07-14T07:07:49.439Z,5.37
2018-07-14T07:10:17.701Z,5.57
2018-07-14T07:12:45.876Z,5.00
2018-07-14T07:15:14.156Z,4.80
2018-07-14T07:17:42.348Z,4.87
2018-07-14T07:20:10.588Z,4.80
2018-07-14T07:22:38.841Z,5.43
2018-07-14T07:25:07.058Z,4.20
2018-07-14T07:27:35.293Z,4.53
2018-07-14T07:30:03.612Z,4.83
2018-07-14T07:32:31.822Z,4.40
2018-07-14T07:35:00.072Z,4.20
2018-07-14T07:37:28.262Z,4.00
2018-07-14T07:39:56.493Z,4.50
2018-07-14T07:42:24.785Z,4.07
2018-07-14T07:44:53.025Z,3.90
2018-07-14T07:47:21.289Z,3.87
2018-07-14T07:49:50.151Z,3.50
2018-07-14T07:52:18.927Z,4.10
2018-07-14T07:54:47.651Z,3.33
2018-07-14T07:57:16.363Z,3.30
2018-07-14T07:59:45.054Z,3.57
2018-07-14T08:02:13.715Z,3.73
2018-07-14T08:04:42.400Z,3.60
2018-07-14T08:07:11.030Z,3.87
2018-07-14T08:09:39.943Z,3.87
2018-07-14T08:12:08.677Z,3.40
2018-07-14T08:14:37.317Z,3.97
2018-07-14T08:17:06.064Z,3.90
2018-07-14T08:19:34.224Z,3.87
2018-07-14T08:22:02.453Z,3.80
2018-07-14T08:24:31.179Z,3.40
2018-07-14T08:26:59.341Z,3.70
2018-07-14T08:29:27.525Z,3.70
2018-07-14T08:31:55.737Z,3.67
2018-07-14T08:34:23.949Z,4.70
2018-07-14T08:36:52.213Z,3.80
2018-07-14T08:39:20.488Z,3.93
2018-07-14T08:41:48.667Z,3.80
2018-07-14T08:44:16.848Z,4.37
2018-07-14T08:46:45.081Z,4.30
2018-07-14T08:49:13.292Z,3.40
2018-07-14T08:51:41.601Z,3.43
2018-07-14T08:54:09.764Z,3.40
2018-07-14T08:56:37.979Z,3.73
2018-07-14T08:59:06.185Z,3.97
2018-07-14T09:01:34.357Z,4.53
2018-07-14T09:04:02.552Z,4.00
2018-07-14T09:06:30.742Z,3.80
2018-07-14T09:08:58.928Z,3.90
2018-07-14T09:11:27.093Z,3.63
2018-07-14T09:13:55.292Z,3.80
2018-07-14T09:16:23.527Z,3.40
2018-07-14T09:18:51.692Z,3.43
2018-07-14T09:21:19.958Z,3.50
2018-07-14T09:23:48.120Z,3.83
2018-07-14T09:26:16.302Z,3.37
2018-07-14T09:28:44.489Z,3.77
2018-07-14T09:31:12.693Z,3.93
2018-07-14T09:33:40.854Z,3.27
2018-07-14T09:36:09.098Z,3.33
2018-07-14T09:38:37.279Z,3.00
2018-07-14T09:41:05.443Z,3.17
2018-07-14T09:43:33.664Z,3.43
2018-07-14T09:46:01.832Z,3.80
2018-07-14T09:48:30.029Z,3.30
2018-07-14T09:50:58.300Z,2.83
2018-07-14T09:53:26.648Z,3.07
2018-07-14T09:55:54.944Z,3.60
2018-07-14T09:58:23.132Z,3.00
2018-07-14T10:00:56.734Z,3.67
2018-07-14T10:03:24.938Z,3.07
2018-07-14T10:05:53.153Z,3.40
2018-07-14T10:08:21.336Z,2.63
2018-07-14T10:10:49.524Z,3.00
2018-07-14T10:13:17.784Z,3.83
2018-07-14T10:15:45.997Z,3.43
2018-07-14T10:18:14.271Z,3.43
2018-07-14T10:20:42.523Z,3.27
2018-07-14T10:23:10.719Z,3.33
2018-07-14T10:25:39.024Z,3.00
2018-07-14T10:28:07.105Z,3.60
2018-07-14T10:30:35.309Z,3.10
2018-07-14T10:33:03.514Z,3.37
2018-07-14T10:35:31.745Z,3.50
2018-07-14T10:37:59.936Z,2.83
2018-07-14T10:40:28.106Z,3.03
2018-07-14T10:42:56.300Z,3.10
2018-07-14T10:45:24.536Z,3.30
2018-07-14T10:47:52.692Z,3.77
2018-07-14T10:50:20.904Z,3.10
2018-07-14T10:52:49.080Z,3.60
2018-07-14T10:55:17.314Z,3.17
2018-07-14T10:57:45.508Z,3.10
2018-07-14T11:00:13.734Z,4.30
2018-07-14T11:02:41.906Z,3.23
2018-07-14T11:05:10.171Z,3.67
2018-07-14T11:07:38.373Z,4.07
2018-07-14T11:10:06.572Z,3.20
2018-07-14T11:12:34.765Z,3.13
2018-07-14T11:15:02.974Z,3.17
2018-07-14T11:17:31.157Z,3.23
2018-07-14T11:19:59.449Z,3.30
2018-07-14T11:22:28.183Z,3.03
2018-07-14T11:25:05.417Z,3.13
2018-07-14T11:27:34.116Z,2.60
2018-07-14T11:30:02.428Z,7.10
2018-07-14T11:32:30.638Z,3.50
2018-07-14T11:34:59.295Z,3.23
2018-07-14T11:37:27.647Z,4.00
2018-07-14T11:39:55.920Z,5.10
2018-07-14T11:42:24.191Z,3.40
2018-07-14T11:44:52.344Z,3.43
2018-07-14T11:47:20.574Z,3.70
2018-07-14T11:49:48.760Z,2.87
2018-07-14T11:52:16.997Z,3.27
2018-07-14T11:54:45.277Z,2.90
2018-07-14T11:57:13.437Z,2.70
2018-07-14T11:59:41.695Z,2.80
2018-07-14T12:02:09.869Z,3.53
2018-07-14T12:04:38.156Z,3.43
2018-07-14T12:07:06.492Z,3.33
2018-07-14T12:09:34.708Z,2.80
2018-07-14T12:12:03.368Z,3.03
2018-07-14T12:14:31.574Z,4.20
2018-07-14T12:16:59.797Z,3.20
2018-07-14T12:19:27.972Z,2.90
2018-07-14T12:21:56.173Z,3.27
2018-07-14T12:24:24.482Z,3.47
2018-07-14T12:26:52.648Z,3.83
2018-07-14T12:29:20.845Z,4.30
2018-07-14T12:31:49.045Z,3.47
2018-07-14T12:34:17.241Z,3.40
2018-07-14T12:36:45.582Z,3.00
2018-07-14T12:39:13.833Z,2.97
2018-07-14T12:41:42.101Z,3.03
2018-07-14T12:44:10.405Z,3.10
2018-07-14T12:46:38.679Z,3.77
2018-07-14T12:49:06.892Z,2.60
2018-07-14T12:51:35.069Z,2.60
2018-07-14T12:54:03.289Z,2.73
2018-07-14T12:56:31.489Z,2.87
2018-07-14T12:58:59.777Z,2.80
2018-07-14T13:01:28.037Z,2.10
2018-07-14T13:03:56.271Z,2.50
2018-07-14T13:06:24.534Z,2.20
2018-07-14T13:08:52.761Z,2.20
2018-07-14T13:11:20.985Z,2.93
2018-07-14T13:13:49.388Z,2.63
2018-07-14T13:16:17.656Z,2.53
2018-07-14T13:18:45.853Z,2.80
2018-07-14T13:21:14.101Z,3.20
2018-07-14T13:23:42.298Z,2.90
2018-07-14T13:26:10.467Z,3.20
2018-07-14T13:28:38.649Z,2.63
2018-07-14T13:31:06.840Z,2.63
2018-07-14T13:33:35.030Z,2.80
2018-07-14T13:36:03.241Z,2.87
2018-07-14T13:38:31.392Z,3.30
2018-07-14T13:40:59.622Z,2.83
2018-07-14T13:43:27.816Z,3.13
2018-07-14T13:45:56.037Z,1.60
2018-07-14T13:48:24.247Z,1.63
2018-07-14T13:50:52.421Z,2.30
2018-07-14T13:53:20.652Z,2.20
2018-07-14T13:55:48.913Z,2.57
2018-07-14T13:58:17.198Z,2.37
2018-07-14T14:00:45.477Z,3.10
2018-07-14T14:03:13.675Z,3.17
2018-07-14T14:05:41.865Z,2.90
2018-07-14T14:08:10.021Z,3.50
2018-07-14T14:10:38.236Z,3.43
2018-07-14T14:13:06.448Z,2.90
2018-07-14T14:15:34.830Z,3.27
2018-07-14T14:18:02.812Z,3.37
2018-07-14T14:20:31.020Z,3.27
2018-07-14T14:22:59.204Z,3.17
2018-07-14T14:25:27.416Z,3.07
2018-07-14T14:27:55.805Z,3.53
2018-07-14T14:30:24.036Z,2.80
2018-07-14T14:32:52.213Z,2.73
2018-07-14T14:35:20.409Z,3.13
2018-07-14T14:37:48.605Z,3.10
2018-07-14T14:40:16.756Z,3.70
2018-07-14T14:42:45.001Z,3.30
2018-07-14T14:45:13.222Z,2.80
2018-07-14T14:47:41.429Z,3.03
2018-07-14T14:50:09.681Z,3.00
2018-07-14T14:52:37.865Z,3.20
2018-07-14T14:55:06.184Z,3.00
2018-07-14T14:57:34.435Z,2.90
2018-07-14T15:00:02.649Z,3.37
2018-07-14T15:02:30.886Z,3.73
2018-07-14T15:04:59.046Z,2.83
2018-07-14T15:07:27.350Z,3.17
2018-07-14T15:09:55.560Z,3.00
2018-07-14T15:12:23.749Z,3.50
2018-07-14T15:14:51.957Z,3.30
2018-07-14T15:17:20.176Z,2.97
2018-07-14T15:19:48.380Z,3.47
2018-07-14T15:22:16.304Z,3.73
2018-07-14T15:24:44.508Z,3.10
2018-07-14T15:27:12.785Z,3.20
2018-07-14T15:29:40.975Z,3.33
2018-07-14T15:32:09.305Z,3.33
2018-07-14T15:34:37.524Z,3.07
2018-07-14T15:37:05.741Z,3.40
2018-07-14T15:39:33.933Z,3.17
2018-07-14T15:42:02.101Z,3.20
2018-07-14T15:44:30.306Z,3.23
2018-07-14T15:46:58.472Z,3.23
2018-07-14T15:49:26.677Z,2.80
2018-07-14T15:51:54.875Z,3.20
2018-07-14T15:54:23.444Z,3.10
2018-07-14T15:56:51.734Z,3.13
2018-07-14T15:59:19.933Z,4.00
2018-07-14T16:01:48.224Z,3.80
2018-07-14T16:04:16.489Z,6.33
2018-07-14T16:06:44.646Z,6.43
2018-07-14T16:09:12.837Z,6.03
2018-07-14T16:11:41.991Z,5.53
2018-07-14T16:14:10.198Z,7.00
2018-07-14T16:16:38.433Z,8.07
2018-07-14T16:19:06.661Z,9.47
2018-07-14T16:21:34.824Z,7.23
2018-07-14T16:24:03.016Z,6.67
2018-07-14T16:26:31.234Z,6.40
2018-07-14T16:28:59.470Z,8.90
2018-07-14T16:31:27.675Z,5.97
2018-07-14T16:33:55.965Z,5.40
2018-07-14T16:36:24.227Z,5.87
2018-07-14T16:38:52.489Z,6.23
2018-07-14T16:41:20.809Z,6.70
2018-07-14T16:43:49.105Z,4.70
2018-07-14T16:46:17.344Z,4.10
2018-07-14T16:48:45.553Z,4.33
2018-07-14T16:51:13.837Z,5.03
2018-07-14T16:53:42.089Z,3.83
2018-07-14T16:56:10.314Z,4.70
2018-07-14T16:58:38.627Z,4.10
2018-07-14T17:01:06.845Z,3.47
2018-07-14T17:03:35.065Z,3.67
2018-07-14T17:06:03.289Z,3.97
2018-07-14T17:08:31.538Z,4.30
2018-07-14T17:10:59.789Z,3.80
2018-07-14T17:13:27.976Z,4.07
2018-07-14T17:15:56.181Z,3.80
2018-07-14T17:18:24.397Z,4.00
2018-07-14T17:20:52.632Z,4.43
2018-07-14T17:23:20.841Z,4.17
2018-07-14T17:25:49.033Z,4.23
2018-07-14T17:28:17.246Z,4.97
2018-07-14T17:30:45.481Z,4.30
2018-07-14T17:33:13.654Z,4.63
2018-07-14T17:35:41.969Z,5.00
2018-07-14T17:38:10.184Z,5.50
2018-07-14T17:40:38.398Z,5.40
2018-07-14T17:43:06.756Z,6.07
2018-07-14T17:45:34.932Z,6.27
2018-07-14T17:48:03.181Z,5.87
2018-07-14T17:50:31.405Z,4.70
2018-07-14T17:52:59.641Z,5.70
2018-07-14T17:55:27.806Z,5.10
2018-07-14T17:57:56.145Z,5.23
2018-07-14T18:00:24.335Z,5.70
2018-07-14T18:02:52.620Z,6.10
2018-07-14T18:05:21.044Z,5.90
2018-07-14T18:07:49.277Z,6.13
2018-07-14T18:10:17.514Z,4.93
2018-07-14T18:12:45.697Z,6.10
2018-07-14T18:15:13.913Z,6.63
2018-07-14T18:17:42.086Z,7.40
2018-07-14T18:20:10.358Z,6.63
2018-07-14T18:22:38.613Z,6.67
2018-07-14T18:25:06.809Z,5.80
2018-07-14T18:27:35.027Z,5.90
2018-07-14T18:30:03.374Z,5.53
2018-07-14T18:32:31.763Z,5.77
2018-07-14T18:34:59.952Z,6.07
2018-07-14T18:37:28.148Z,6.57
2018-07-14T18:39:56.354Z,6.20
2018-07-14T18:42:24.764Z,5.63
2018-07-14T18:44:53.384Z,6.70
2018-07-14T18:47:21.829Z,7.30
2018-07-14T18:49:50.100Z,7.80
2018-07-14T18:52:18.404Z,6.80
2018-07-14T18:54:46.630Z,6.47
2018-07-14T18:57:14.937Z,6.27
2018-07-14T18:59:43.110Z,5.90
2018-07-14T19:02:12.276Z,7.03
2018-07-14T19:04:40.480Z,7.10
2018-07-14T19:07:09.998Z,6.90
2018-07-14T19:09:38.214Z,6.40
2018-07-14T19:12:06.433Z,5.83
2018-07-14T19:14:34.640Z,6.90
2018-07-14T19:17:02.870Z,6.90
2018-07-14T19:19:31.056Z,6.27
2018-07-14T19:21:59.248Z,6.80
2018-07-14T19:24:27.412Z,6.70
2018-07-14T19:26:56.617Z,6.97
2018-07-14T19:29:25.169Z,6.73
2018-07-14T19:31:53.367Z,6.30
2018-07-14T19:34:21.558Z,6.10
2018-07-14T19:36:49.792Z,6.60
2018-07-14T19:39:18.499Z,5.83
2018-07-14T19:41:46.668Z,6.40
2018-07-14T19:44:14.944Z,6.43
2018-07-14T19:46:43.498Z,6.90
2018-07-14T19:49:11.720Z,7.33
2018-07-14T19:51:40.100Z,7.33
2018-07-14T19:54:08.332Z,6.33
2018-07-14T19:56:37.010Z,7.17
2018-07-14T19:59:05.672Z,9.27
2018-07-14T20:01:33.949Z,6.93
2018-07-14T20:04:02.169Z,6.30
2018-07-14T20:06:30.399Z,7.53
2018-07-14T20:08:58.593Z,6.70
2018-07-14T20:11:27.003Z,6.83
2018-07-14T20:13:55.188Z,7.40
2018-07-14T20:16:23.373Z,6.57
2018-07-14T20:18:52.211Z,7.47
2018-07-14T20:21:20.487Z,10.57
2018-07-14T20:23:49.376Z,8.70
2018-07-14T20:26:17.673Z,7.47
2018-07-14T20:28:46.731Z,8.03
2018-07-14T20:31:15.073Z,8.20
2018-07-14T20:33:43.509Z,7.40
2018-07-14T20:36:11.776Z,7.67
2018-07-14T20:38:40.062Z,6.83
2018-07-14T20:41:08.376Z,6.70
2018-07-14T20:43:36.705Z,7.30
2018-07-14T20:46:05.640Z,7.90
2018-07-14T20:48:33.878Z,6.80
2018-07-14T20:51:02.092Z,8.20
2018-07-14T20:53:30.285Z,7.33
2018-07-14T20:55:58.530Z,6.87
2018-07-14T20:58:26.812Z,15.13
2018-07-14T21:00:55.029Z,11.53
2018-07-14T21:03:23.252Z,9.30
2018-07-14T21:05:51.464Z,7.37
2018-07-14T21:08:19.690Z,7.33
2018-07-14T21:10:47.873Z,6.90
2018-07-14T21:13:16.078Z,6.97
2018-07-14T21:15:44.361Z,7.00
2018-07-14T21:18:12.551Z,7.77
2018-07-14T21:20:40.800Z,8.27
2018-07-14T21:23:08.977Z,6.37
2018-07-14T21:25:37.261Z,6.73
2018-07-14T21:28:05.472Z,7.00
2018-07-14T21:30:33.690Z,7.53
2018-07-14T21:33:01.923Z,7.10
2018-07-14T21:35:30.264Z,7.03
2018-07-14T21:37:58.461Z,7.30
2018-07-14T21:40:26.696Z,8.80
2018-07-14T21:42:54.880Z,7.87
2018-07-14T21:45:23.145Z,8.30
2018-07-14T21:47:51.381Z,8.80
2018-07-14T21:50:19.593Z,8.27
2018-07-14T21:52:47.797Z,8.43
2018-07-14T21:55:15.997Z,8.07
2018-07-14T21:57:44.208Z,7.00
2018-07-14T22:00:22.741Z,7.20
2018-07-14T22:02:50.975Z,7.37
2018-07-14T22:05:19.258Z,7.80
2018-07-14T22:07:47.494Z,7.27
2018-07-14T22:10:15.727Z,7.70
2018-07-14T22:12:43.913Z,8.07
2018-07-14T22:15:12.173Z,8.00
2018-07-14T22:17:40.466Z,8.63
2018-07-14T22:20:08.802Z,8.00
2018-07-14T22:22:37.002Z,8.00
2018-07-14T22:25:05.251Z,8.00
2018-07-14T22:27:33.500Z,8.80
2018-07-14T22:30:01.826Z,7.17
2018-07-14T22:32:30.063Z,7.33
2018-07-14T22:34:58.246Z,7.97
2018-07-14T22:37:26.467Z,8.10
2018-07-14T22:39:54.632Z,8.07
2018-07-14T22:42:22.841Z,8.40
2018-07-14T22:44:51.125Z,8.10
2018-07-14T22:47:19.333Z,7.50
2018-07-14T22:49:47.570Z,7.97
2018-07-14T22:52:15.800Z,8.10
2018-07-14T22:54:43.997Z,6.93
2018-07-14T22:57:12.185Z,7.30
2018-07-14T22:59:40.477Z,6.60
2018-07-14T23:02:08.656Z,6.97
2018-07-14T23:04:36.893Z,6.40
2018-07-14T23:07:05.137Z,6.80
2018-07-14T23:09:33.309Z,6.77
2018-07-14T23:12:01.630Z,7.23
2018-07-14T23:14:29.875Z,7.63
2018-07-14T23:16:58.088Z,8.90
2018-07-14T23:19:26.301Z,8.20
2018-07-14T23:21:54.500Z,7.67
2018-07-14T23:24:22.728Z,6.97
2018-07-14T23:26:50.942Z,8.13
2018-07-14T23:29:19.157Z,8.10
2018-07-14T23:31:47.384Z,7.00
2018-07-14T23:34:15.561Z,6.40
2018-07-14T23:36:43.770Z,6.30
2018-07-14T23:39:11.961Z,7.63
2018-07-14T23:41:40.147Z,6.30
2018-07-14T23:44:08.433Z,6.83
2018-07-14T23:46:36.649Z,6.10
2018-07-14T23:49:04.931Z,7.20
2018-07-14T23:51:33.137Z,6.80
2018-07-14T23:54:01.297Z,7.17
2018-07-14T23:56:29.505Z,7.30
2018-07-14T23:58:57.718Z,8.67
